createdAt,value
2022-08-17T00:00:33.209Z,19.07
2022-08-17T00:03:04.561Z,19.02
2022-08-17T00:05:35.554Z,19.04
2022-08-17T00:08:03.517Z,19.01
2022-08-17T00:10:33.382Z,18.96
2022-08-17T00:13:01.568Z,18.97
2022-08-17T00:15:29.494Z,19.00
2022-08-17T00:17:57.319Z,19.01
2022-08-17T00:20:32.074Z,19.00
2022-08-17T00:23:08.030Z,19.06
2022-08-17T00:25:37.629Z,19.07
2022-08-17T00:28:06.229Z,19.08
2022-08-17T00:30:50.886Z,19.07
2022-08-17T00:33:24.006Z,19.07
2022-08-17T00:35:52.643Z,19.04
2022-08-17T00:38:20.835Z,18.97
2022-08-17T00:40:51.719Z,18.85
2022-08-17T00:43:23.257Z,18.67
2022-08-17T00:45:51.165Z,18.63
2022-08-17T00:48:29.340Z,18.60
2022-08-17T00:51:03.190Z,18.57
2022-08-17T00:53:34.706Z,18.54
2022-08-17T00:56:08.847Z,18.55
2022-08-17T00:58:37.807Z,18.51
2022-08-17T01:01:08.066Z,18.52
2022-08-17T01:03:37.316Z,18.53
2022-08-17T01:06:07.251Z,18.53
2022-08-17T01:08:36.779Z,18.55
2022-08-17T01:11:07.849Z,18.57
2022-08-17T01:13:40.967Z,18.55
2022-08-17T01:16:17.758Z,18.55
2022-08-17T01:18:48.778Z,18.53
2022-08-17T01:21:23.565Z,18.55
2022-08-17T01:23:53.223Z,18.50
2022-08-17T01:26:21.581Z,18.51
2022-08-17T01:28:53.902Z,18.52
2022-08-17T01:31:26.858Z,18.55
2022-08-17T01:33:54.765Z,18.55
2022-08-17T01:36:22.949Z,18.55
2022-08-17T01:38:52.270Z,18.53
2022-08-17T01:41:23.238Z,18.44
2022-08-17T01:43:56.525Z,18.38
2022-08-17T01:46:28.106Z,18.32
2022-08-17T01:48:58.062Z,18.32
2022-08-17T01:51:27.518Z,18.36
2022-08-17T01:54:00.286Z,18.41
2022-08-17T01:56:31.169Z,18.45
2022-08-17T01:58:59.042Z,18.47
2022-08-17T02:01:31.760Z,18.53
2022-08-17T02:04:01.352Z,18.54
2022-08-17T02:06:31.660Z,18.56
2022-08-17T02:09:16.783Z,18.50
2022-08-17T02:11:46.212Z,18.51
2022-08-17T02:14:14.991Z,18.49
2022-08-17T02:16:43.517Z,18.49
2022-08-17T02:19:13.994Z,18.47
2022-08-17T02:21:43.363Z,18.48
2022-08-17T02:24:16.237Z,18.46
2022-08-17T02:26:44.735Z,18.42
2022-08-17T02:29:14.939Z,18.43
2022-08-17T02:31:42.927Z,18.40
2022-08-17T02:34:11.026Z,18.42
2022-08-17T02:36:39.249Z,18.43
2022-08-17T02:39:08.182Z,18.45
2022-08-17T02:41:38.275Z,18.43
2022-08-17T02:44:07.194Z,18.46
2022-08-17T02:46:35.563Z,18.47
2022-08-17T02:49:03.924Z,18.50
2022-08-17T02:51:33.729Z,18.47
2022-08-17T02:54:38.838Z,18.44
2022-08-17T02:56:51.151Z,18.43
2022-08-17T02:59:20.089Z,18.43
2022-08-17T03:01:48.339Z,18.43
2022-08-17T03:04:16.335Z,18.43
2022-08-17T03:06:44.185Z,18.41
2022-08-17T03:09:12.171Z,18.40
2022-08-17T03:11:40.253Z,18.36
2022-08-17T03:14:09.555Z,18.34
2022-08-17T03:16:37.460Z,18.32
2022-08-17T03:19:07.228Z,18.30
2022-08-17T03:21:35.135Z,18.25
2022-08-17T03:24:08.720Z,18.21
2022-08-17T03:26:37.219Z,18.21
2022-08-17T03:29:05.301Z,18.15
2022-08-17T03:31:34.562Z,18.15
2022-08-17T03:34:05.152Z,18.14
2022-08-17T03:36:35.897Z,18.14
2022-08-17T03:39:04.306Z,18.12
2022-08-17T03:41:32.232Z,18.12
2022-08-17T03:44:00.378Z,18.10
2022-08-17T03:46:45.693Z,18.02
2022-08-17T03:49:32.850Z,18.02
2022-08-17T03:52:18.137Z,18.04
2022-08-17T03:55:04.084Z,18.03
2022-08-17T03:57:33.275Z,18.03
2022-08-17T04:00:01.603Z,18.04
2022-08-17T04:02:31.879Z,18.04
2022-08-17T04:05:01.894Z,18.02
2022-08-17T04:07:31.150Z,18.01
2022-08-17T04:09:59.974Z,17.98
2022-08-17T04:12:31.012Z,18.00
2022-08-17T04:14:59.489Z,17.98
2022-08-17T04:17:28.460Z,17.96
2022-08-17T04:19:57.387Z,17.92
2022-08-17T04:22:32.024Z,17.95
2022-08-17T04:25:03.456Z,17.98
2022-08-17T04:27:31.523Z,18.04
2022-08-17T04:29:59.650Z,18.05
2022-08-17T04:33:04.099Z,18.12
2022-08-17T04:35:19.765Z,18.13
2022-08-17T04:37:49.038Z,18.17
2022-08-17T04:40:35.597Z,18.14
2022-08-17T04:43:05.666Z,18.17
2022-08-17T04:45:33.666Z,18.15
2022-08-17T04:48:01.788Z,18.13
2022-08-17T04:50:29.695Z,18.13
2022-08-17T04:52:59.432Z,18.12
2022-08-17T04:55:27.521Z,18.10
2022-08-17T04:57:55.491Z,18.12
2022-08-17T05:00:25.944Z,18.15
2022-08-17T05:02:55.924Z,18.14
2022-08-17T05:05:26.301Z,18.15
2022-08-17T05:07:55.467Z,18.18
2022-08-17T05:10:26.512Z,18.18
2022-08-17T05:12:59.770Z,18.22
2022-08-17T05:15:29.058Z,18.25
2022-08-17T05:18:01.478Z,18.32
2022-08-17T05:20:31.143Z,18.36
2022-08-17T05:23:01.804Z,18.42
2022-08-17T05:25:34.550Z,18.52
2022-08-17T05:28:07.137Z,18.58
2022-08-17T05:30:36.817Z,18.63
2022-08-17T05:33:08.137Z,18.70
2022-08-17T05:35:38.290Z,18.55
2022-08-17T05:38:08.089Z,18.47
2022-08-17T05:40:38.364Z,18.41
2022-08-17T05:43:08.677Z,18.46
2022-08-17T05:45:55.448Z,18.64
2022-08-17T05:48:39.765Z,18.90
2022-08-17T05:51:43.349Z,18.55
2022-08-17T05:54:23.050Z,18.78
2022-08-17T05:57:09.008Z,18.93
2022-08-17T05:59:48.789Z,19.12
2022-08-17T06:02:23.599Z,19.26
2022-08-17T06:05:11.699Z,19.40
2022-08-17T06:07:49.506Z,19.50
2022-08-17T06:10:27.433Z,19.58
2022-08-17T06:13:12.012Z,19.62
2022-08-17T06:15:55.397Z,19.76
2022-08-17T06:18:26.842Z,19.84
2022-08-17T06:20:57.849Z,19.87
2022-08-17T06:23:31.536Z,20.03
2022-08-17T06:26:04.933Z,20.22
2022-08-17T06:28:38.983Z,20.42
2022-08-17T06:31:14.239Z,20.63
2022-08-17T06:33:47.657Z,20.76
2022-08-17T06:36:30.228Z,20.84
2022-08-17T06:39:10.693Z,21.11
2022-08-17T06:41:51.117Z,21.30
2022-08-17T06:44:50.002Z,21.61
2022-08-17T06:47:27.994Z,21.96
2022-08-17T06:50:17.000Z,22.33
2022-08-17T06:52:53.893Z,22.74
2022-08-17T06:55:28.632Z,22.89
2022-08-17T06:58:02.154Z,22.87
2022-08-17T07:00:48.856Z,23.16
2022-08-17T07:03:33.469Z,23.45
2022-08-17T07:06:06.580Z,23.56
2022-08-17T07:08:48.414Z,23.74
2022-08-17T07:11:19.545Z,23.94
2022-08-17T07:13:54.164Z,24.09
2022-08-17T07:16:27.628Z,24.24
2022-08-17T07:18:57.892Z,24.39
2022-08-17T07:21:39.724Z,24.89
2022-08-17T07:24:37.451Z,25.06
2022-08-17T07:27:08.755Z,25.53
2022-08-17T07:29:42.112Z,26.72
2022-08-17T07:32:13.591Z,28.10
2022-08-17T07:35:04.726Z,29.66
2022-08-17T07:37:33.490Z,30.85
2022-08-17T07:40:16.984Z,32.59
2022-08-17T07:43:03.294Z,33.80
2022-08-17T07:45:51.906Z,32.89
2022-08-17T07:48:25.173Z,33.17
2022-08-17T07:50:54.120Z,35.10
2022-08-17T07:53:24.212Z,37.01
2022-08-17T07:55:53.969Z,37.26
2022-08-17T07:58:23.700Z,38.56
2022-08-17T08:01:07.976Z,40.65
2022-08-17T08:03:43.745Z,40.33
2022-08-17T08:06:21.109Z,41.53
2022-08-17T08:08:52.972Z,40.58
2022-08-17T08:11:31.483Z,40.96
2022-08-17T08:14:21.744Z,41.84
2022-08-17T08:17:02.004Z,42.93
2022-08-17T08:19:33.508Z,43.67
2022-08-17T08:22:11.128Z,45.24
2022-08-17T08:24:53.512Z,44.68
2022-08-17T08:27:32.026Z,40.68
2022-08-17T08:30:07.919Z,39.06
2022-08-17T08:32:50.231Z,40.79
2022-08-17T08:35:28.127Z,38.33
2022-08-17T08:38:07.782Z,39.52
2022-08-17T08:40:50.813Z,40.88
2022-08-17T08:43:28.143Z,37.97
2022-08-17T08:46:06.037Z,37.29
2022-08-17T08:48:58.721Z,36.64
2022-08-17T08:51:40.025Z,35.11
2022-08-17T08:54:33.565Z,33.57
2022-08-17T08:57:24.330Z,32.91
2022-08-17T09:00:12.826Z,32.40
2022-08-17T09:03:19.339Z,32.43
2022-08-17T09:06:04.028Z,34.27
2022-08-17T09:08:45.210Z,40.68
2022-08-17T09:11:21.504Z,39.98
2022-08-17T09:14:00.698Z,39.77
2022-08-17T09:16:33.393Z,38.76
2022-08-17T09:19:07.221Z,36.90
2022-08-17T09:21:48.241Z,34.50
2022-08-17T09:24:25.201Z,33.75
2022-08-17T09:27:00.039Z,32.75
2022-08-17T09:29:32.607Z,32.21
2022-08-17T09:32:03.965Z,31.27
2022-08-17T09:34:36.173Z,30.66
2022-08-17T09:37:15.758Z,30.03
2022-08-17T09:39:54.226Z,29.50
2022-08-17T09:42:27.954Z,29.08
2022-08-17T09:45:04.213Z,28.18
2022-08-17T09:47:46.167Z,28.12
2022-08-17T09:51:03.663Z,28.27
2022-08-17T09:53:10.230Z,28.49
2022-08-17T09:56:07.680Z,28.84
2022-08-17T09:58:48.990Z,29.36
2022-08-17T10:01:29.226Z,30.12
2022-08-17T10:04:20.335Z,31.55
2022-08-17T10:06:59.478Z,31.55
2022-08-17T10:09:41.250Z,30.99
2022-08-17T10:12:30.113Z,29.59
2022-08-17T10:15:23.137Z,29.35
2022-08-17T10:18:08.562Z,29.26
2022-08-17T10:20:47.664Z,29.32
2022-08-17T10:23:36.856Z,29.30
2022-08-17T10:26:16.888Z,29.53
2022-08-17T10:28:52.626Z,29.64
2022-08-17T10:31:35.912Z,29.47
2022-08-17T10:34:41.963Z,29.82
2022-08-17T10:37:38.257Z,30.23
2022-08-17T10:40:34.201Z,30.56
2022-08-17T10:43:18.845Z,30.41
2022-08-17T10:46:14.555Z,30.09
2022-08-17T10:48:44.282Z,29.56
2022-08-17T10:51:38.119Z,29.21
2022-08-17T10:54:07.153Z,29.12
2022-08-17T10:56:50.587Z,28.95
2022-08-17T10:59:50.530Z,29.14
2022-08-17T11:02:28.185Z,28.80
2022-08-17T11:05:13.785Z,29.23
2022-08-17T11:07:58.867Z,29.09
2022-08-17T11:10:53.282Z,29.03
2022-08-17T11:13:35.871Z,28.97
2022-08-17T11:16:23.860Z,28.45
2022-08-17T11:19:13.183Z,27.83
2022-08-17T11:21:59.156Z,27.74
2022-08-17T11:24:36.288Z,27.55
2022-08-17T11:27:12.061Z,27.45
2022-08-17T11:29:53.686Z,27.71
2022-08-17T11:32:47.173Z,27.81
2022-08-17T11:35:37.103Z,28.55
2022-08-17T11:38:25.546Z,28.99
2022-08-17T11:41:20.085Z,30.94
2022-08-17T11:44:18.533Z,31.14
2022-08-17T11:47:20.408Z,30.23
2022-08-17T11:50:27.106Z,29.58
2022-08-17T11:52:57.317Z,29.62
2022-08-17T11:56:03.334Z,29.26
2022-08-17T11:58:38.603Z,28.16
2022-08-17T12:01:07.871Z,27.85
2022-08-17T12:03:54.321Z,27.08
2022-08-17T12:06:42.578Z,26.89
2022-08-17T12:09:17.446Z,26.66
2022-08-17T12:12:01.542Z,26.58
2022-08-17T12:15:08.997Z,26.12
2022-08-17T12:17:40.739Z,26.17
2022-08-17T12:20:16.485Z,25.99
2022-08-17T12:22:49.565Z,25.97
2022-08-17T12:25:24.779Z,26.00
2022-08-17T12:28:05.469Z,25.87
2022-08-17T12:30:36.109Z,25.65
2022-08-17T12:33:04.162Z,25.52
2022-08-17T12:35:35.224Z,25.68
2022-08-17T12:38:06.682Z,25.84
2022-08-17T12:40:59.681Z,26.30
2022-08-17T12:43:31.268Z,26.76
2022-08-17T12:46:12.971Z,26.73
2022-08-17T12:48:54.975Z,26.42
2022-08-17T12:51:29.434Z,26.71
2022-08-17T12:53:57.727Z,27.60
2022-08-17T12:56:27.463Z,27.24
2022-08-17T12:58:56.742Z,27.74
2022-08-17T13:01:25.354Z,28.15
2022-08-17T13:03:59.819Z,28.45
2022-08-17T13:06:32.217Z,28.20
2022-08-17T13:09:11.270Z,28.79
2022-08-17T13:11:49.034Z,30.05
2022-08-17T13:14:18.509Z,31.10
2022-08-17T13:16:53.582Z,31.41
2022-08-17T13:19:29.907Z,30.86
2022-08-17T13:22:12.879Z,31.39
2022-08-17T13:24:54.431Z,32.21
2022-08-17T13:27:26.956Z,31.70
2022-08-17T13:29:59.666Z,30.77
2022-08-17T13:32:44.149Z,30.28
2022-08-17T13:38:51.127Z,29.61
2022-08-17T13:41:31.314Z,29.40
2022-08-17T13:43:59.341Z,29.42
2022-08-17T13:46:31.515Z,29.08
2022-08-17T13:49:02.676Z,28.94
2022-08-17T13:51:43.404Z,28.85
2022-08-17T13:54:27.662Z,29.00
2022-08-17T13:57:01.732Z,29.39
2022-08-17T13:59:54.688Z,29.88
2022-08-17T14:02:27.217Z,30.62
2022-08-17T14:04:57.465Z,30.86
2022-08-17T14:07:30.361Z,30.60
2022-08-17T14:10:04.254Z,30.17
2022-08-17T14:12:34.523Z,29.82
2022-08-17T14:15:03.451Z,29.80
2022-08-17T14:17:36.346Z,29.75
2022-08-17T14:20:07.723Z,29.69
2022-08-17T14:22:38.676Z,29.42
2022-08-17T14:25:10.723Z,29.42
2022-08-17T14:27:53.268Z,29.29
2022-08-17T14:30:24.616Z,28.79
2022-08-17T14:32:53.815Z,28.30
2022-08-17T14:35:24.006Z,28.04
2022-08-17T14:37:53.427Z,28.09
2022-08-17T14:40:25.564Z,28.34
2022-08-17T14:42:55.233Z,28.16
2022-08-17T14:45:30.250Z,27.91
2022-08-17T14:48:01.335Z,27.81
2022-08-17T14:50:29.272Z,27.95
2022-08-17T14:52:58.176Z,28.99
2022-08-17T14:55:29.248Z,28.83
2022-08-17T14:57:57.487Z,28.36
2022-08-17T15:00:26.173Z,28.40
2022-08-17T15:02:56.546Z,29.14
2022-08-17T15:05:27.663Z,29.61
2022-08-17T15:07:55.829Z,30.45
2022-08-17T15:10:25.877Z,30.91
2022-08-17T15:12:55.435Z,30.71
2022-08-17T15:15:24.013Z,30.46
2022-08-17T15:17:52.331Z,30.08
2022-08-17T15:20:24.884Z,30.03
2022-08-17T15:22:55.176Z,29.91
2022-08-17T15:25:24.333Z,29.98
2022-08-17T15:27:52.531Z,29.75
2022-08-17T15:30:22.490Z,29.73
2022-08-17T15:32:54.151Z,29.45
2022-08-17T15:35:27.548Z,29.14
2022-08-17T15:37:58.477Z,28.86
2022-08-17T15:40:26.747Z,28.57
2022-08-17T15:42:55.164Z,28.49
2022-08-17T15:45:28.436Z,28.40
2022-08-17T15:47:56.338Z,28.33
2022-08-17T15:50:24.211Z,28.24
2022-08-17T15:52:59.753Z,28.11
2022-08-17T15:55:29.654Z,27.89
2022-08-17T15:57:57.691Z,27.86
2022-08-17T16:00:28.615Z,27.73
2022-08-17T16:03:45.181Z,27.72
2022-08-17T16:05:46.224Z,27.55
2022-08-17T16:08:20.042Z,27.52
2022-08-17T16:10:48.866Z,27.42
2022-08-17T16:13:17.994Z,27.29
2022-08-17T16:15:57.045Z,27.21
2022-08-17T16:18:31.178Z,27.06
2022-08-17T16:21:21.663Z,27.06
2022-08-17T16:23:51.461Z,27.06
2022-08-17T16:26:19.955Z,27.07
2022-08-17T16:28:47.883Z,27.02
2022-08-17T16:31:17.896Z,26.98
2022-08-17T16:34:15.966Z,26.97
2022-08-17T16:36:36.114Z,26.96
2022-08-17T16:39:04.864Z,26.84
2022-08-17T16:41:45.525Z,26.76
2022-08-17T16:44:15.468Z,26.66
2022-08-17T16:46:50.541Z,26.57
2022-08-17T16:49:36.039Z,26.47
2022-08-17T16:52:06.217Z,26.35
2022-08-17T16:54:36.918Z,26.29
2022-08-17T16:57:11.477Z,26.17
2022-08-17T16:59:43.569Z,26.15
2022-08-17T17:02:17.205Z,26.14
2022-08-17T17:04:53.391Z,26.13
2022-08-17T17:07:51.142Z,26.07
2022-08-17T17:10:24.906Z,26.04
2022-08-17T17:13:02.397Z,26.06
2022-08-17T17:15:44.203Z,25.97
2022-08-17T17:18:17.491Z,25.87
2022-08-17T17:20:56.412Z,25.75
2022-08-17T17:23:48.712Z,25.66
2022-08-17T17:26:34.230Z,25.57
2022-08-17T17:29:16.364Z,25.50
2022-08-17T17:31:57.221Z,25.41
2022-08-17T17:34:30.854Z,25.32
2022-08-17T17:37:05.516Z,25.19
2022-08-17T17:39:43.894Z,25.13
2022-08-17T17:42:19.886Z,25.05
2022-08-17T17:45:09.278Z,24.98
2022-08-17T17:47:39.701Z,24.91
2022-08-17T17:50:10.379Z,24.81
2022-08-17T17:52:49.001Z,24.70
2022-08-17T17:55:37.905Z,24.57
2022-08-17T17:58:28.078Z,24.47
2022-08-17T18:01:13.819Z,24.40
2022-08-17T18:03:58.432Z,24.31
2022-08-17T18:06:41.541Z,24.20
2022-08-17T18:09:20.793Z,24.10
2022-08-17T18:12:35.734Z,24.01
2022-08-17T18:15:24.319Z,23.90
2022-08-17T18:18:38.921Z,23.78
2022-08-17T18:21:29.588Z,23.68
2022-08-17T18:24:06.018Z,23.58
2022-08-17T18:27:08.754Z,23.50
2022-08-17T18:29:45.590Z,23.40
2022-08-17T18:32:33.649Z,23.33
2022-08-17T18:35:27.891Z,23.23
2022-08-17T18:38:00.322Z,23.16
2022-08-17T18:40:34.649Z,23.08
2022-08-17T18:43:15.221Z,23.03
2022-08-17T18:45:49.579Z,22.97
2022-08-17T18:48:25.805Z,22.91
2022-08-17T18:50:57.623Z,22.85
2022-08-17T18:53:34.150Z,22.77
2022-08-17T18:56:30.777Z,22.69
2022-08-17T18:59:21.506Z,22.64
2022-08-17T19:02:15.505Z,22.59
2022-08-17T19:05:01.060Z,22.51
2022-08-17T19:07:32.659Z,22.49
2022-08-17T19:10:11.332Z,22.44
2022-08-17T19:12:46.628Z,22.39
2022-08-17T19:15:18.851Z,22.34
2022-08-17T19:17:53.080Z,22.30
2022-08-17T19:20:29.009Z,22.24
2022-08-17T19:23:06.378Z,22.21
2022-08-17T19:25:40.251Z,22.19
2022-08-17T19:28:21.751Z,22.17
2022-08-17T19:30:55.944Z,22.16
2022-08-17T19:33:24.225Z,22.15
2022-08-17T19:36:02.566Z,22.14
2022-08-17T19:38:41.512Z,22.10
2022-08-17T19:41:17.498Z,22.08
2022-08-17T19:43:57.561Z,22.09
2022-08-17T19:46:35.819Z,22.06
2022-08-17T19:49:08.882Z,22.03
2022-08-17T19:51:43.319Z,21.97
2022-08-17T19:54:16.379Z,21.94
2022-08-17T19:56:51.704Z,21.90
2022-08-17T19:59:35.636Z,21.84
2022-08-17T20:02:18.370Z,21.79
2022-08-17T20:04:50.818Z,21.75
2022-08-17T20:07:23.460Z,21.72
2022-08-17T20:09:57.770Z,21.70
2022-08-17T20:12:31.824Z,21.69
2022-08-17T20:15:06.238Z,21.66
2022-08-17T20:17:37.318Z,21.63
2022-08-17T20:20:20.257Z,21.59
2022-08-17T20:22:55.271Z,21.55
2022-08-17T20:25:32.319Z,21.50
2022-08-17T20:28:06.234Z,21.47
2022-08-17T20:30:39.462Z,21.46
2022-08-17T20:33:12.422Z,21.44
2022-08-17T20:36:00.492Z,21.39
2022-08-17T20:38:41.675Z,21.41
2022-08-17T20:41:14.290Z,21.38
2022-08-17T20:44:02.117Z,21.35
2022-08-17T20:47:04.615Z,21.35
2022-08-17T20:49:54.237Z,21.32
2022-08-17T20:52:53.002Z,21.26
2022-08-17T20:55:55.827Z,21.22
2022-08-17T20:58:50.056Z,21.16
2022-08-17T21:01:38.975Z,21.13
2022-08-17T21:04:30.165Z,21.12
2022-08-17T21:07:29.316Z,21.04
2022-08-17T21:10:12.058Z,20.99
2022-08-17T21:12:43.227Z,20.98
2022-08-17T21:15:36.247Z,20.95
2022-08-17T21:18:14.726Z,20.93
2022-08-17T21:21:00.974Z,20.92
2022-08-17T21:23:45.549Z,20.93
2022-08-17T21:26:30.126Z,20.93
2022-08-17T21:29:31.358Z,20.94
2022-08-17T21:32:24.522Z,20.95
2022-08-17T21:35:27.276Z,20.95
2022-08-17T21:37:59.843Z,20.95
2022-08-17T21:40:31.497Z,20.94
2022-08-17T21:43:05.105Z,20.97
2022-08-17T21:45:37.584Z,20.96
2022-08-17T21:48:13.549Z,20.98
2022-08-17T21:50:43.919Z,20.99
2022-08-17T21:53:23.004Z,20.98
2022-08-17T21:55:53.511Z,20.97
2022-08-17T21:58:31.077Z,20.97
2022-08-17T22:01:20.738Z,20.96
2022-08-17T22:03:56.947Z,20.93
2022-08-17T22:06:28.437Z,20.91
2022-08-17T22:09:11.601Z,20.92
2022-08-17T22:11:58.184Z,20.91
2022-08-17T22:14:52.798Z,20.90
2022-08-17T22:17:20.624Z,20.90
2022-08-17T22:19:51.637Z,20.88
2022-08-17T22:22:32.602Z,20.87
2022-08-17T22:25:03.010Z,20.90
2022-08-17T22:27:51.668Z,20.90
2022-08-17T22:30:33.670Z,20.91
2022-08-17T22:33:03.012Z,20.92
2022-08-17T22:35:37.998Z,20.92
2022-08-17T22:38:32.288Z,20.91
2022-08-17T22:41:26.035Z,20.91
2022-08-17T22:43:58.646Z,20.92
2022-08-17T22:46:32.023Z,20.92
2022-08-17T22:49:02.066Z,20.93
2022-08-17T22:51:32.884Z,20.92
2022-08-17T22:54:31.381Z,20.95
2022-08-17T22:57:20.351Z,20.92
2022-08-17T22:59:53.108Z,20.92
2022-08-17T23:02:24.858Z,20.92
2022-08-17T23:04:55.868Z,20.92
2022-08-17T23:07:23.960Z,20.84
2022-08-17T23:09:52.466Z,20.80
2022-08-17T23:12:27.487Z,20.39
2022-08-17T23:15:02.128Z,20.15
2022-08-17T23:17:36.911Z,20.32
2022-08-17T23:20:08.477Z,20.48
2022-08-17T23:22:44.689Z,20.57
2022-08-17T23:25:28.164Z,20.71
2022-08-17T23:27:57.436Z,20.64
2022-08-17T23:30:28.717Z,20.48
2022-08-17T23:32:58.690Z,20.10
2022-08-17T23:35:39.824Z,19.79
2022-08-17T23:38:09.788Z,19.61
2022-08-17T23:40:39.281Z,19.10
2022-08-17T23:43:23.665Z,18.86
2022-08-17T23:45:56.634Z,18.73
2022-08-17T23:48:32.688Z,18.58
2022-08-17T23:51:09.151Z,18.58
2022-08-17T23:53:38.161Z,18.53
2022-08-17T23:56:10.072Z,18.53
2022-08-17T23:58:39.682Z,18.69
